createdAt,value
2023-04-11T00:00:14.468Z,4.10
2023-04-11T00:02:41.875Z,4.10
2023-04-11T00:05:09.601Z,4.20
2023-04-11T00:07:37.032Z,4.10
2023-04-11T00:10:04.999Z,4.20
2023-04-11T00:12:32.299Z,4.30
2023-04-11T00:14:59.474Z,4.40
2023-04-11T00:17:26.664Z,4.40
2023-04-11T00:19:53.797Z,4.30
2023-04-11T00:22:21.289Z,4.40
2023-04-11T00:24:48.393Z,4.30
2023-04-11T00:27:15.608Z,4.20
2023-04-11T00:29:42.797Z,4.30
2023-04-11T00:32:10.228Z,4.20
2023-04-11T00:34:37.401Z,4.10
2023-04-11T00:37:04.519Z,4.10
2023-04-11T00:39:31.727Z,4.10
2023-04-11T00:42:08.733Z,4.10
2023-04-11T00:44:36.650Z,4.10
2023-04-11T00:47:10.216Z,4.10
2023-04-11T00:49:38.636Z,4.10
2023-04-11T00:52:06.943Z,4.00
2023-04-11T00:54:34.491Z,4.00
2023-04-11T00:57:04.753Z,4.10
2023-04-11T00:59:33.651Z,4.30
2023-04-11T01:02:01.504Z,4.30
2023-04-11T01:04:29.147Z,4.30
2023-04-11T01:07:04.411Z,4.20
2023-04-11T01:09:34.723Z,4.10
2023-04-11T01:12:05.111Z,4.20
2023-04-11T01:14:32.398Z,4.20
2023-04-11T01:17:01.564Z,4.10
2023-04-11T01:19:29.713Z,4.00
2023-04-11T01:21:59.559Z,4.20
2023-04-11T01:24:27.591Z,4.20
2023-04-11T01:26:55.159Z,4.30
2023-04-11T01:29:22.448Z,4.10
2023-04-11T01:31:51.590Z,4.20
2023-04-11T01:34:20.938Z,4.10
2023-04-11T01:36:48.573Z,4.20
2023-04-11T01:39:16.078Z,4.20
2023-04-11T01:41:44.806Z,4.20
2023-04-11T01:44:12.629Z,4.10
2023-04-11T01:46:39.984Z,4.00
2023-04-11T01:49:07.302Z,4.10
2023-04-11T01:51:34.917Z,4.10
2023-04-11T01:54:02.133Z,4.10
2023-04-11T01:56:29.485Z,4.10
2023-04-11T01:58:56.932Z,4.20
2023-04-11T02:01:24.259Z,4.10
2023-04-11T02:03:51.557Z,4.10
2023-04-11T02:06:18.967Z,4.10
2023-04-11T02:08:46.228Z,4.00
2023-04-11T02:11:13.401Z,4.00
2023-04-11T02:13:40.530Z,4.00
2023-04-11T02:16:13.176Z,4.00
2023-04-11T02:18:41.987Z,4.00
2023-04-11T02:21:09.260Z,3.90
2023-04-11T02:23:36.904Z,4.00
2023-04-11T02:26:04.532Z,4.00
2023-04-11T02:28:31.620Z,3.90
2023-04-11T02:30:58.871Z,3.80
2023-04-11T02:33:26.168Z,3.80
2023-04-11T02:35:53.620Z,3.70
2023-04-11T02:38:20.963Z,3.80
2023-04-11T02:40:48.556Z,3.90
2023-04-11T02:43:15.759Z,3.80
2023-04-11T02:45:43.535Z,3.90
2023-04-11T02:48:10.769Z,3.80
2023-04-11T02:50:38.212Z,3.80
2023-04-11T02:53:05.353Z,3.80
2023-04-11T02:55:32.499Z,3.80
2023-04-11T02:58:00.037Z,3.70
2023-04-11T03:00:27.199Z,3.80
2023-04-11T03:02:54.403Z,3.80
2023-04-11T03:05:21.634Z,3.90
2023-04-11T03:07:48.772Z,3.90
2023-04-11T03:10:16.262Z,4.00
2023-04-11T03:12:43.597Z,4.00
2023-04-11T03:15:11.146Z,4.00
2023-04-11T03:17:38.368Z,4.00
2023-04-11T03:20:06.671Z,4.10
2023-04-11T03:22:33.830Z,4.00
2023-04-11T03:25:01.216Z,3.70
2023-04-11T03:27:28.651Z,3.80
2023-04-11T03:29:56.233Z,3.80
2023-04-11T03:32:23.900Z,3.80
2023-04-11T03:34:51.479Z,3.80
2023-04-11T03:37:18.587Z,3.80
2023-04-11T03:39:45.967Z,3.80
2023-04-11T03:42:13.191Z,3.70
2023-04-11T03:44:40.489Z,3.70
2023-04-11T03:47:07.749Z,3.60
2023-04-11T03:49:34.914Z,3.60
2023-04-11T03:52:02.181Z,3.50
2023-04-11T03:54:29.302Z,3.50
2023-04-11T03:56:56.435Z,3.50
2023-04-11T03:59:23.618Z,3.60
2023-04-11T04:01:50.802Z,3.70
2023-04-11T04:04:17.969Z,3.70
2023-04-11T04:06:45.187Z,3.60
2023-04-11T04:09:12.442Z,3.60
2023-04-11T04:11:39.680Z,3.70
2023-04-11T04:14:06.766Z,3.70
2023-04-11T04:16:33.922Z,3.80
2023-04-11T04:19:01.594Z,3.90
2023-04-11T04:21:30.243Z,3.90
2023-04-11T04:23:57.812Z,4.00
2023-04-11T04:26:25.362Z,3.90
2023-04-11T04:28:52.511Z,3.90
2023-04-11T04:31:19.714Z,3.80
2023-04-11T04:33:47.689Z,3.80
2023-04-11T04:36:14.961Z,3.70
2023-04-11T04:38:42.169Z,3.80
2023-04-11T04:41:09.513Z,3.70
2023-04-11T04:43:36.685Z,3.70
2023-04-11T04:46:04.050Z,3.70
2023-04-11T04:48:31.218Z,3.60
2023-04-11T04:50:58.525Z,3.60
2023-04-11T04:53:25.673Z,3.70
2023-04-11T04:55:52.892Z,3.80
2023-04-11T04:58:20.043Z,3.90
2023-04-11T05:00:47.231Z,3.80
2023-04-11T05:03:14.501Z,3.80
2023-04-11T05:05:41.757Z,3.80
2023-04-11T05:08:08.998Z,3.90
2023-04-11T05:10:36.416Z,3.90
2023-04-11T05:13:03.643Z,3.90
2023-04-11T05:15:30.819Z,4.00
2023-04-11T05:17:58.019Z,3.90
2023-04-11T05:20:25.215Z,4.00
2023-04-11T05:22:53.003Z,4.00
2023-04-11T05:25:20.312Z,4.00
2023-04-11T05:27:47.443Z,4.00
2023-04-11T05:30:14.909Z,4.00
2023-04-11T05:32:42.351Z,4.00
2023-04-11T05:35:10.078Z,4.00
2023-04-11T05:37:37.264Z,4.10
2023-04-11T05:40:05.084Z,4.10
2023-04-11T05:42:32.238Z,4.10
2023-04-11T05:44:59.364Z,4.10
2023-04-11T05:47:26.640Z,4.10
2023-04-11T05:49:53.784Z,4.20
2023-04-11T05:52:20.896Z,4.30
2023-04-11T05:54:48.072Z,4.30
2023-04-11T05:57:15.287Z,4.40
2023-04-11T05:59:42.364Z,4.50
2023-04-11T06:02:09.750Z,4.50
2023-04-11T06:04:37.109Z,4.50
2023-04-11T06:07:04.682Z,4.60
2023-04-11T06:09:33.911Z,4.70
2023-04-11T06:12:01.496Z,4.70
2023-04-11T06:14:28.733Z,4.70
2023-04-11T06:16:55.930Z,4.80
2023-04-11T06:19:23.099Z,4.90
2023-04-11T06:21:50.244Z,5.00
2023-04-11T06:24:17.679Z,5.10
2023-04-11T06:26:45.120Z,5.10
2023-04-11T06:29:12.316Z,5.10
2023-04-11T06:31:40.514Z,5.10
2023-04-11T06:34:07.738Z,5.20
2023-04-11T06:36:34.857Z,5.20
2023-04-11T06:39:01.972Z,5.30
2023-04-11T06:41:29.801Z,5.40
2023-04-11T06:43:57.338Z,5.40
2023-04-11T06:46:24.877Z,5.50
2023-04-11T06:48:52.078Z,5.60
2023-04-11T06:51:19.305Z,5.60
2023-04-11T06:53:46.387Z,5.70
2023-04-11T06:56:13.499Z,5.70
2023-04-11T06:58:40.646Z,5.80
2023-04-11T07:01:07.920Z,5.80
2023-04-11T07:03:35.550Z,5.90
2023-04-11T07:06:02.913Z,5.90
2023-04-11T07:08:31.843Z,6.00
2023-04-11T07:10:59.907Z,6.00
2023-04-11T07:13:27.037Z,6.10
2023-04-11T07:15:54.341Z,6.20
2023-04-11T07:18:22.682Z,6.20
2023-04-11T07:20:49.833Z,6.30
2023-04-11T07:23:17.133Z,6.40
2023-04-11T07:25:44.554Z,6.50
2023-04-11T07:28:12.286Z,6.50
2023-04-11T07:30:39.493Z,6.60
2023-04-11T07:33:06.788Z,6.60
2023-04-11T07:35:34.920Z,6.70
2023-04-11T07:38:02.240Z,6.70
2023-04-11T07:40:30.485Z,6.70
2023-04-11T07:43:00.904Z,6.80
2023-04-11T07:45:39.186Z,6.80
2023-04-11T07:48:11.350Z,6.80
2023-04-11T07:50:46.820Z,6.80
2023-04-11T07:53:14.233Z,6.80
2023-04-11T07:55:41.600Z,6.90
2023-04-11T07:58:09.165Z,6.90
2023-04-11T08:00:36.357Z,7.00
2023-04-11T08:03:09.102Z,7.00
2023-04-11T08:05:37.632Z,7.10
2023-04-11T08:08:06.453Z,7.10
2023-04-11T08:10:34.349Z,7.20
2023-04-11T08:13:01.827Z,7.30
2023-04-11T08:15:29.063Z,7.30
2023-04-11T08:17:57.096Z,7.30
2023-04-11T08:20:24.887Z,7.30
2023-04-11T08:22:52.056Z,7.30
2023-04-11T08:25:19.735Z,7.30
2023-04-11T08:27:46.872Z,7.40
2023-04-11T08:30:15.087Z,7.40
2023-04-11T08:32:42.367Z,7.50
2023-04-11T08:35:10.257Z,7.50
2023-04-11T08:37:37.433Z,7.60
2023-04-11T08:40:05.233Z,7.60
2023-04-11T08:42:32.857Z,7.60
2023-04-11T08:45:04.318Z,7.60
2023-04-11T08:47:31.878Z,7.70
2023-04-11T08:49:59.078Z,7.70
2023-04-11T08:52:26.495Z,7.80
2023-04-11T08:54:55.141Z,7.90
2023-04-11T08:57:30.743Z,7.90
2023-04-11T09:00:00.848Z,8.00
2023-04-11T09:02:28.212Z,8.00
2023-04-11T09:04:55.530Z,8.20
2023-04-11T09:07:22.763Z,8.20
2023-04-11T09:09:50.110Z,8.30
2023-04-11T09:12:29.721Z,8.40
2023-04-11T09:14:57.008Z,8.40
2023-04-11T09:17:24.333Z,8.50
2023-04-11T09:19:51.518Z,8.60
2023-04-11T09:22:18.588Z,8.60
2023-04-11T09:25:03.082Z,8.70
2023-04-11T09:27:30.249Z,8.70
2023-04-11T09:29:57.387Z,8.80
2023-04-11T09:32:31.193Z,8.80
2023-04-11T09:35:18.230Z,8.90
2023-04-11T09:37:50.917Z,8.90
2023-04-11T09:40:22.250Z,8.90
2023-04-11T09:42:59.920Z,8.90
2023-04-11T09:45:32.092Z,9.00
2023-04-11T09:48:01.401Z,9.00
2023-04-11T09:50:28.938Z,9.10
2023-04-11T09:52:58.490Z,9.20
2023-04-11T09:55:26.623Z,9.20
2023-04-11T10:00:25.787Z,9.40
2023-04-11T10:02:53.904Z,9.50
2023-04-11T10:05:27.018Z,9.60
2023-04-11T10:08:14.225Z,9.70
2023-04-11T10:10:44.084Z,9.80
2023-04-11T10:13:43.219Z,9.80
2023-04-11T10:16:19.181Z,9.90
2023-04-11T10:18:55.225Z,9.90
2023-04-11T10:21:30.934Z,10.00
2023-04-11T10:24:16.986Z,10.10
2023-04-11T10:27:36.706Z,10.20
2023-04-11T10:30:04.249Z,10.30
2023-04-11T10:32:31.439Z,10.30
2023-04-11T10:34:58.527Z,10.40
2023-04-11T10:37:36.746Z,10.50
2023-04-11T10:40:09.039Z,10.60
2023-04-11T10:42:44.898Z,10.50
2023-04-11T10:45:22.172Z,10.50
2023-04-11T10:48:01.309Z,10.60
2023-04-11T10:50:32.900Z,10.70
2023-04-11T10:53:02.672Z,11.20
2023-04-11T10:55:41.415Z,11.10
2023-04-11T10:58:12.042Z,11.50
2023-04-11T11:00:48.653Z,12.10
2023-04-11T11:03:28.097Z,12.80
2023-04-11T11:06:06.369Z,12.40
2023-04-11T11:08:39.415Z,13.10
2023-04-11T11:11:11.507Z,13.60
2023-04-11T11:13:53.957Z,13.30
2023-04-11T11:16:25.243Z,13.50
2023-04-11T11:18:57.470Z,13.80
2023-04-11T11:21:28.166Z,14.40
2023-04-11T11:24:03.629Z,15.30
2023-04-11T11:26:41.925Z,15.10
2023-04-11T11:29:11.235Z,14.70
2023-04-11T11:31:43.621Z,15.40
2023-04-11T11:34:22.793Z,15.80
2023-04-11T11:36:51.610Z,16.50
2023-04-11T11:39:21.073Z,16.60
2023-04-11T11:41:50.502Z,16.70
2023-04-11T11:44:27.053Z,16.60
2023-04-11T11:47:14.502Z,16.40
2023-04-11T11:49:52.265Z,16.40
2023-04-11T11:52:38.123Z,16.80
2023-04-11T11:55:10.500Z,17.00
2023-04-11T11:57:44.628Z,17.00
2023-04-11T12:00:12.896Z,17.00
2023-04-11T12:02:40.958Z,16.80
2023-04-11T12:05:12.265Z,16.80
2023-04-11T12:07:40.043Z,15.90
2023-04-11T12:10:13.488Z,16.30
2023-04-11T12:12:53.729Z,16.30
2023-04-11T12:15:23.486Z,16.00
2023-04-11T12:17:53.514Z,15.80
2023-04-11T12:20:26.020Z,15.70
2023-04-11T12:22:55.324Z,15.70
2023-04-11T12:25:23.330Z,15.60
2023-04-11T12:27:50.620Z,15.70
2023-04-11T12:30:18.198Z,15.60
2023-04-11T12:32:46.035Z,15.30
2023-04-11T12:35:13.569Z,15.20
2023-04-11T12:37:40.849Z,14.90
2023-04-11T12:40:08.762Z,14.60
2023-04-11T12:42:39.163Z,14.30
2023-04-11T12:45:14.198Z,14.30
2023-04-11T12:47:41.747Z,14.10
2023-04-11T12:50:10.798Z,14.20
2023-04-11T12:52:38.332Z,14.20
2023-04-11T12:55:06.417Z,14.10
2023-04-11T12:57:33.587Z,14.10
2023-04-11T13:00:00.912Z,14.10
2023-04-11T13:02:31.261Z,13.90
2023-04-11T13:05:03.053Z,13.80
2023-04-11T13:07:30.366Z,13.60
2023-04-11T13:09:57.536Z,13.70
2023-04-11T13:12:24.888Z,13.90
2023-04-11T13:14:52.032Z,14.00
2023-04-11T13:17:19.146Z,14.20
2023-04-11T13:19:46.321Z,14.50
2023-04-11T13:22:13.700Z,14.50
2023-04-11T13:24:40.832Z,14.70
2023-04-11T13:27:07.969Z,14.60
2023-04-11T13:29:35.178Z,14.30
2023-04-11T13:32:02.910Z,14.60
2023-04-11T13:34:30.127Z,14.60
2023-04-11T13:36:57.359Z,14.50
2023-04-11T13:39:24.540Z,15.00
2023-04-11T13:41:51.885Z,15.50
2023-04-11T13:44:19.095Z,15.70
2023-04-11T13:46:46.263Z,15.20
2023-04-11T13:49:13.419Z,14.80
2023-04-11T13:51:40.769Z,14.50
2023-04-11T13:54:08.147Z,14.40
2023-04-11T13:56:35.897Z,14.20
2023-04-11T13:59:03.633Z,14.10
2023-04-11T14:01:30.855Z,14.00
2023-04-11T14:03:58.263Z,14.00
2023-04-11T14:06:25.548Z,13.90
2023-04-11T14:08:52.760Z,13.80
2023-04-11T14:11:20.110Z,13.80
2023-04-11T14:13:47.439Z,13.80
2023-04-11T14:16:14.836Z,13.80
2023-04-11T14:18:42.394Z,13.70
2023-04-11T14:21:09.838Z,13.60
2023-04-11T14:23:37.194Z,13.60
2023-04-11T14:26:05.248Z,13.80
2023-04-11T14:28:32.468Z,14.00
2023-04-11T14:30:59.766Z,14.30
2023-04-11T14:33:27.012Z,14.60
2023-04-11T14:35:54.267Z,14.60
2023-04-11T14:38:21.469Z,14.90
2023-04-11T14:40:48.622Z,14.80
2023-04-11T14:43:15.791Z,14.60
2023-04-11T14:45:42.902Z,14.40
2023-04-11T14:48:10.137Z,14.20
2023-04-11T14:50:37.369Z,14.00
2023-04-11T14:53:04.704Z,13.80
2023-04-11T14:55:32.035Z,13.80
2023-04-11T14:57:59.630Z,13.60
2023-04-11T15:00:27.335Z,13.60
2023-04-11T15:02:56.953Z,13.50
2023-04-11T15:05:24.632Z,13.50
2023-04-11T15:07:53.558Z,13.40
2023-04-11T15:10:24.890Z,13.30
2023-04-11T15:12:53.464Z,13.20
2023-04-11T15:15:20.682Z,13.10
2023-04-11T15:18:09.686Z,13.10
2023-04-11T15:20:36.999Z,13.00
2023-04-11T15:23:04.179Z,12.90
2023-04-11T15:25:31.312Z,12.90
2023-04-11T15:27:58.471Z,13.00
2023-04-11T15:30:25.771Z,13.10
2023-04-11T15:32:53.029Z,13.00
2023-04-11T15:35:20.296Z,13.00
2023-04-11T15:37:47.426Z,13.00
2023-04-11T15:40:14.695Z,13.00
2023-04-11T15:42:42.002Z,13.00
2023-04-11T15:45:09.676Z,13.10
2023-04-11T15:47:36.902Z,13.00
2023-04-11T15:50:04.421Z,13.10
2023-04-11T15:52:31.663Z,13.20
2023-04-11T15:54:58.766Z,13.30
2023-04-11T15:57:26.474Z,13.30
2023-04-11T15:59:53.630Z,13.30
2023-04-11T16:02:20.842Z,13.30
2023-04-11T16:04:49.191Z,13.30
2023-04-11T16:07:17.156Z,13.20
2023-04-11T16:09:44.789Z,13.10
2023-04-11T16:12:12.071Z,13.00
2023-04-11T16:14:39.283Z,13.00
2023-04-11T16:17:06.530Z,13.00
2023-04-11T16:19:34.034Z,12.90
2023-04-11T16:22:01.505Z,12.80
2023-04-11T16:24:29.830Z,12.90
2023-04-11T16:26:56.960Z,12.80
2023-04-11T16:29:24.303Z,12.80
2023-04-11T16:31:51.719Z,12.60
2023-04-11T16:34:19.132Z,12.50
2023-04-11T16:36:46.411Z,12.40
2023-04-11T16:39:13.786Z,12.40
2023-04-11T16:41:41.012Z,12.40
2023-04-11T16:44:08.944Z,12.40
2023-04-11T16:46:43.003Z,12.40
2023-04-11T16:49:11.251Z,12.30
2023-04-11T16:51:38.598Z,12.40
2023-04-11T16:54:06.361Z,12.30
2023-04-11T16:56:33.933Z,12.30
2023-04-11T16:59:01.470Z,12.20
2023-04-11T17:01:28.700Z,12.20
2023-04-11T17:03:56.254Z,12.10
2023-04-11T17:06:24.392Z,12.00
2023-04-11T17:08:52.060Z,11.90
2023-04-11T17:11:27.721Z,11.80
2023-04-11T17:13:55.452Z,11.70
2023-04-11T17:16:23.260Z,11.70
2023-04-11T17:18:50.734Z,11.70
2023-04-11T17:21:18.045Z,11.50
2023-04-11T17:23:47.141Z,11.50
2023-04-11T17:26:20.250Z,11.50
2023-04-11T17:28:47.877Z,11.40
2023-04-11T17:31:17.645Z,11.40
2023-04-11T17:33:53.276Z,11.20
2023-04-11T17:36:20.668Z,11.20
2023-04-11T17:38:48.808Z,11.10
2023-04-11T17:41:16.264Z,11.10
2023-04-11T17:43:44.187Z,11.00
2023-04-11T17:46:11.425Z,10.90
2023-04-11T17:48:38.641Z,10.90
2023-04-11T17:51:06.508Z,10.80
2023-04-11T17:53:34.133Z,10.70
2023-04-11T17:56:05.429Z,10.70
2023-04-11T17:58:32.549Z,10.60
2023-04-11T18:01:00.168Z,10.50
2023-04-11T18:03:27.548Z,10.50
2023-04-11T18:05:55.025Z,10.40
2023-04-11T18:08:32.186Z,10.30
2023-04-11T18:11:04.145Z,10.30
2023-04-11T18:13:31.677Z,10.20
2023-04-11T18:15:59.075Z,10.10
2023-04-11T18:18:28.130Z,10.10
2023-04-11T18:21:03.545Z,10.00
2023-04-11T18:23:32.582Z,10.00
2023-04-11T18:26:00.158Z,9.90
2023-04-11T18:28:27.764Z,9.70
2023-04-11T18:30:55.228Z,9.60
2023-04-11T18:33:22.542Z,9.40
2023-04-11T18:35:51.547Z,9.40
2023-04-11T18:38:19.084Z,9.20
2023-04-11T18:40:46.512Z,9.30
2023-04-11T18:43:14.553Z,9.20
2023-04-11T18:45:43.304Z,9.10
2023-04-11T18:48:11.493Z,9.20
2023-04-11T18:50:39.187Z,9.10
2023-04-11T18:53:10.333Z,9.10
2023-04-11T18:55:40.624Z,9.20
2023-04-11T18:58:10.115Z,9.10
2023-04-11T19:00:39.684Z,9.10
2023-04-11T19:03:07.655Z,8.90
2023-04-11T19:05:36.164Z,8.90
2023-04-11T19:08:03.792Z,8.80
2023-04-11T19:10:31.937Z,8.80
2023-04-11T19:12:59.364Z,8.70
2023-04-11T19:15:26.835Z,8.70
2023-04-11T19:17:54.809Z,8.70
2023-04-11T19:20:22.047Z,8.80
2023-04-11T19:22:49.472Z,8.70
2023-04-11T19:25:16.630Z,8.60
2023-04-11T19:27:43.796Z,8.40
2023-04-11T19:30:12.262Z,8.30
2023-04-11T19:32:40.221Z,8.40
2023-04-11T19:35:09.584Z,8.20
2023-04-11T19:37:38.032Z,8.10
2023-04-11T19:40:07.655Z,8.10
2023-04-11T19:42:35.389Z,8.00
2023-04-11T19:45:03.951Z,7.90
2023-04-11T19:47:31.211Z,7.90
2023-04-11T19:49:58.806Z,7.90
2023-04-11T19:52:26.956Z,7.90
2023-04-11T19:54:55.652Z,7.80
2023-04-11T19:57:26.519Z,7.60
2023-04-11T19:59:53.917Z,7.60
2023-04-11T20:02:21.239Z,7.50
2023-04-11T20:04:48.871Z,7.30
2023-04-11T20:07:16.641Z,7.30
2023-04-11T20:09:44.446Z,7.20
2023-04-11T20:12:12.409Z,7.10
2023-04-11T20:14:40.034Z,7.20
2023-04-11T20:17:07.656Z,7.10
2023-04-11T20:19:35.906Z,7.00
2023-04-11T20:22:04.472Z,7.00
2023-04-11T20:24:31.906Z,7.10
2023-04-11T20:26:59.735Z,6.90
2023-04-11T20:29:28.280Z,6.80
2023-04-11T20:31:57.972Z,6.80
2023-04-11T20:34:25.527Z,6.80
2023-04-11T20:36:53.075Z,6.70
2023-04-11T20:39:20.526Z,6.70
2023-04-11T20:41:48.375Z,6.50
2023-04-11T20:44:16.394Z,6.50
2023-04-11T20:46:43.806Z,6.60
2023-04-11T20:49:11.403Z,6.40
2023-04-11T20:51:38.796Z,6.30
2023-04-11T20:54:06.462Z,6.20
2023-04-11T20:56:33.661Z,6.20
2023-04-11T20:59:01.869Z,6.20
2023-04-11T21:01:30.148Z,6.20
2023-04-11T21:03:58.738Z,6.10
2023-04-11T21:06:26.448Z,6.00
2023-04-11T21:08:53.654Z,5.80
2023-04-11T21:11:21.188Z,5.70
2023-04-11T21:13:51.722Z,5.70
2023-04-11T21:16:18.959Z,5.60
2023-04-11T21:18:46.177Z,5.70
2023-04-11T21:21:13.482Z,5.70
2023-04-11T21:23:40.706Z,5.50
2023-04-11T21:26:07.934Z,5.40
2023-04-11T21:33:30.465Z,5.10
2023-04-11T21:35:57.948Z,4.90
2023-04-11T21:38:25.367Z,5.00
2023-04-11T21:40:53.071Z,4.80
2023-04-11T21:43:20.301Z,4.80
2023-04-11T21:45:47.480Z,4.70
2023-04-11T21:48:14.629Z,4.60
2023-04-11T21:50:41.777Z,4.60
2023-04-11T21:53:08.927Z,4.50
2023-04-11T21:55:36.266Z,4.60
2023-04-11T21:58:03.432Z,4.60
2023-04-11T22:00:30.597Z,4.50
2023-04-11T22:05:26.096Z,4.40
2023-04-11T22:08:10.331Z,4.30
2023-04-11T22:10:46.666Z,4.10
2023-04-11T22:13:21.149Z,4.00
2023-04-11T22:15:49.284Z,4.10
2023-04-11T22:18:16.459Z,4.00
2023-04-11T22:20:45.550Z,3.90
2023-04-11T22:23:13.505Z,4.10
2023-04-11T22:25:44.451Z,4.10
2023-04-11T22:28:14.795Z,4.10
2023-04-11T22:30:41.887Z,4.00
2023-04-11T22:33:09.154Z,4.20
2023-04-11T22:38:04.142Z,3.70
2023-04-11T22:40:31.519Z,3.70
2023-04-11T22:42:58.903Z,3.60
2023-04-11T22:45:26.142Z,3.50
2023-04-11T22:47:53.668Z,3.50
2023-04-11T22:50:21.349Z,3.60
2023-04-11T22:52:48.699Z,3.50
2023-04-11T22:55:15.990Z,3.40
2023-04-11T22:57:43.151Z,3.40
2023-04-11T23:00:11.169Z,3.40
2023-04-11T23:02:38.569Z,3.40
2023-04-11T23:05:07.966Z,3.40
2023-04-11T23:07:35.246Z,3.40
2023-04-11T23:10:02.413Z,3.30
2023-04-11T23:12:30.142Z,3.50
2023-04-11T23:14:57.593Z,3.50
2023-04-11T23:17:24.768Z,3.50
2023-04-11T23:19:52.047Z,3.30
2023-04-11T23:22:19.469Z,3.20
2023-04-11T23:24:46.943Z,3.10
2023-04-11T23:27:14.236Z,3.10
2023-04-11T23:29:41.358Z,3.20
2023-04-11T23:32:08.609Z,3.10
2023-04-11T23:34:35.696Z,3.20
2023-04-11T23:37:02.867Z,3.20
2023-04-11T23:39:30.095Z,3.20
2023-04-11T23:41:57.643Z,3.10
2023-04-11T23:44:24.859Z,3.20
2023-04-11T23:46:52.094Z,3.10
2023-04-11T23:49:19.290Z,2.90
2023-04-11T23:51:46.425Z,2.80
2023-04-11T23:54:13.777Z,2.80
2023-04-11T23:56:40.941Z,2.70
2023-04-11T23:59:08.493Z,2.80
